sensor_id;sensor_type;location;lat;lon;timestamp;temperature;humidity
7378;DHT22;3730;50.856;12.776;2023-07-13T00:03:37;22.60;1.00
7378;DHT22;3730;50.856;12.776;2023-07-13T00:06:03;22.70;1.00
7378;DHT22;3730;50.856;12.776;2023-07-13T00:08:31;22.60;1.00
7378;DHT22;3730;50.856;12.776;2023-07-13T00:15:50;22.50;1.00
7378;DHT22;3730;50.856;12.776;2023-07-13T00:18:16;22.50;1.00
7378;DHT22;3730;50.856;12.776;2023-07-13T00:20:41;22.40;1.00
7378;DHT22;3730;50.856;12.776;2023-07-13T00:23:07;22.40;1.00
7378;DHT22;3730;50.856;12.776;2023-07-13T00:25:33;22.40;1.00
7378;DHT22;3730;50.856;12.776;2023-07-13T00:27:58;22.20;1.00
7378;DHT22;3730;50.856;12.776;2023-07-13T00:30:24;22.40;1.00
7378;DHT22;3730;50.856;12.776;2023-07-13T00:32:51;22.20;1.00
7378;DHT22;3730;50.856;12.776;2023-07-13T00:35:16;22.20;1.00
7378;DHT22;3730;50.856;12.776;2023-07-13T00:40:11;22.10;1.00
7378;DHT22;3730;50.856;12.776;2023-07-13T00:47:39;22.00;1.00
7378;DHT22;3730;50.856;12.776;2023-07-13T00:50:07;22.00;1.00
7378;DHT22;3730;50.856;12.776;2023-07-13T00:52:36;22.00;1.00
7378;DHT22;3730;50.856;12.776;2023-07-13T00:55:03;21.80;1.00
7378;DHT22;3730;50.856;12.776;2023-07-13T00:57:29;21.80;1.00
7378;DHT22;3730;50.856;12.776;2023-07-13T00:59:58;21.80;1.00
7378;DHT22;3730;50.856;12.776;2023-07-13T01:02:25;21.90;1.00
7378;DHT22;3730;50.856;12.776;2023-07-13T01:04:51;21.80;1.00
7378;DHT22;3730;50.856;12.776;2023-07-13T01:07:18;21.70;1.00
7378;DHT22;3730;50.856;12.776;2023-07-13T01:09:44;21.70;1.00
7378;DHT22;3730;50.856;12.776;2023-07-13T01:14:37;21.60;1.00
7378;DHT22;3730;50.856;12.776;2023-07-13T01:17:03;21.60;1.00
7378;DHT22;3730;50.856;12.776;2023-07-13T01:19:41;21.60;1.00
7378;DHT22;3730;50.856;12.776;2023-07-13T01:22:13;21.70;1.00
7378;DHT22;3730;50.856;12.776;2023-07-13T01:24:41;21.70;1.00
7378;DHT22;3730;50.856;12.776;2023-07-13T01:27:09;21.60;1.00
7378;DHT22;3730;50.856;12.776;2023-07-13T01:29:37;21.60;1.00
7378;DHT22;3730;50.856;12.776;2023-07-13T01:32:15;21.70;1.00
7378;DHT22;3730;50.856;12.776;2023-07-13T01:34:41;21.70;1.00
7378;DHT22;3730;50.856;12.776;2023-07-13T01:37:10;21.60;1.00
7378;DHT22;3730;50.856;12.776;2023-07-13T01:39:36;21.50;1.00
7378;DHT22;3730;50.856;12.776;2023-07-13T01:42:02;21.50;1.00
7378;DHT22;3730;50.856;12.776;2023-07-13T01:44:28;21.50;1.00
7378;DHT22;3730;50.856;12.776;2023-07-13T01:56:38;21.50;1.00
7378;DHT22;3730;50.856;12.776;2023-07-13T02:01:31;21.20;1.00
7378;DHT22;3730;50.856;12.776;2023-07-13T02:03:56;21.10;1.00
7378;DHT22;3730;50.856;12.776;2023-07-13T02:06:22;21.10;1.00
7378;DHT22;3730;50.856;12.776;2023-07-13T02:08:47;21.00;1.00
7378;DHT22;3730;50.856;12.776;2023-07-13T02:11:13;20.90;1.00
7378;DHT22;3730;50.856;12.776;2023-07-13T02:13:39;21.00;1.00
7378;DHT22;3730;50.856;12.776;2023-07-13T02:16:05;21.00;1.00
7378;DHT22;3730;50.856;12.776;2023-07-13T02:20:57;21.00;1.00
7378;DHT22;3730;50.856;12.776;2023-07-13T02:23:23;21.00;1.00
7378;DHT22;3730;50.856;12.776;2023-07-13T02:25:49;21.00;1.00
7378;DHT22;3730;50.856;12.776;2023-07-13T02:28:15;21.00;1.00
7378;DHT22;3730;50.856;12.776;2023-07-13T02:30:40;21.00;1.00
7378;DHT22;3730;50.856;12.776;2023-07-13T02:33:06;20.90;1.00
7378;DHT22;3730;50.856;12.776;2023-07-13T02:37:57;21.00;1.00
7378;DHT22;3730;50.856;12.776;2023-07-13T02:40:23;20.80;1.00
7378;DHT22;3730;50.856;12.776;2023-07-13T04:08:15;20.00;1.00
7378;DHT22;3730;50.856;12.776;2023-07-13T04:10:42;19.80;1.00
7378;DHT22;3730;50.856;12.776;2023-07-13T04:15:34;19.90;1.00
7378;DHT22;3730;50.856;12.776;2023-07-13T04:17:59;20.10;1.00
7378;DHT22;3730;50.856;12.776;2023-07-13T04:20:26;19.90;1.00
7378;DHT22;3730;50.856;12.776;2023-07-13T04:22:53;19.90;1.00
7378;DHT22;3730;50.856;12.776;2023-07-13T04:25:20;19.90;1.00
7378;DHT22;3730;50.856;12.776;2023-07-13T04:27:45;20.00;1.00
7378;DHT22;3730;50.856;12.776;2023-07-13T04:30:11;19.90;1.00
7378;DHT22;3730;50.856;12.776;2023-07-13T04:32:37;19.90;1.00
7378;DHT22;3730;50.856;12.776;2023-07-13T04:39:55;19.80;1.00
7378;DHT22;3730;50.856;12.776;2023-07-13T04:44:48;19.80;1.00
7378;DHT22;3730;50.856;12.776;2023-07-13T04:47:14;19.80;1.00
7378;DHT22;3730;50.856;12.776;2023-07-13T04:52:06;19.80;1.00
7378;DHT22;3730;50.856;12.776;2023-07-13T04:54:33;19.80;1.00
7378;DHT22;3730;50.856;12.776;2023-07-13T04:59:25;19.60;1.00
7378;DHT22;3730;50.856;12.776;2023-07-13T05:01:51;19.80;1.00
7378;DHT22;3730;50.856;12.776;2023-07-13T05:06:42;19.90;1.00
7378;DHT22;3730;50.856;12.776;2023-07-13T05:09:08;19.90;1.00
7378;DHT22;3730;50.856;12.776;2023-07-13T05:11:34;19.80;1.00
7378;DHT22;3730;50.856;12.776;2023-07-13T05:14:00;19.80;1.00
7378;DHT22;3730;50.856;12.776;2023-07-13T05:16:27;19.70;1.00
7378;DHT22;3730;50.856;12.776;2023-07-13T05:18:52;19.60;1.00
7378;DHT22;3730;50.856;12.776;2023-07-13T05:21:18;19.50;1.00
7378;DHT22;3730;50.856;12.776;2023-07-13T05:23:44;19.80;1.00
7378;DHT22;3730;50.856;12.776;2023-07-13T05:26:10;19.60;1.00
7378;DHT22;3730;50.856;12.776;2023-07-13T05:35:54;19.90;1.00
7378;DHT22;3730;50.856;12.776;2023-07-13T05:40:46;20.00;1.00
7378;DHT22;3730;50.856;12.776;2023-07-13T05:43:12;20.00;1.00
7378;DHT22;3730;50.856;12.776;2023-07-13T05:48:04;20.10;1.00
7378;DHT22;3730;50.856;12.776;2023-07-13T05:50:30;20.10;1.00
7378;DHT22;3730;50.856;12.776;2023-07-13T05:52:56;20.00;1.00
7378;DHT22;3730;50.856;12.776;2023-07-13T05:55:21;20.10;1.00
7378;DHT22;3730;50.856;12.776;2023-07-13T05:57:47;20.10;1.00
7378;DHT22;3730;50.856;12.776;2023-07-13T06:00:13;20.10;1.00
7378;DHT22;3730;50.856;12.776;2023-07-13T06:02:39;20.20;1.00
7378;DHT22;3730;50.856;12.776;2023-07-13T06:05:05;20.20;1.00
7378;DHT22;3730;50.856;12.776;2023-07-13T06:07:31;20.30;1.00
7378;DHT22;3730;50.856;12.776;2023-07-13T06:14:50;20.40;1.00
7378;DHT22;3730;50.856;12.776;2023-07-13T06:17:16;20.40;1.00
7378;DHT22;3730;50.856;12.776;2023-07-13T06:19:41;20.30;1.00
7378;DHT22;3730;50.856;12.776;2023-07-13T06:22:07;20.40;1.00
7378;DHT22;3730;50.856;12.776;2023-07-13T06:24:33;20.50;1.00
7378;DHT22;3730;50.856;12.776;2023-07-13T06:26:59;20.60;1.00
7378;DHT22;3730;50.856;12.776;2023-07-13T06:29:24;20.40;1.00
7378;DHT22;3730;50.856;12.776;2023-07-13T06:34:16;20.50;1.00
7378;DHT22;3730;50.856;12.776;2023-07-13T06:36:41;20.60;1.00
7378;DHT22;3730;50.856;12.776;2023-07-13T06:39:07;20.60;1.00
7378;DHT22;3730;50.856;12.776;2023-07-13T06:41:33;20.60;1.00
7378;DHT22;3730;50.856;12.776;2023-07-13T06:48:51;20.70;1.00
7378;DHT22;3730;50.856;12.776;2023-07-13T06:51:17;20.60;1.00
7378;DHT22;3730;50.856;12.776;2023-07-13T06:56:10;20.90;1.00
7378;DHT22;3730;50.856;12.776;2023-07-13T06:58:36;20.90;1.00
7378;DHT22;3730;50.856;12.776;2023-07-13T07:01:03;21.10;1.00
7378;DHT22;3730;50.856;12.776;2023-07-13T07:03:29;21.00;1.00
7378;DHT22;3730;50.856;12.776;2023-07-13T07:06:00;21.10;1.00
7378;DHT22;3730;50.856;12.776;2023-07-13T07:08:26;21.10;1.00
7378;DHT22;3730;50.856;12.776;2023-07-13T07:45:01;21.50;1.00
7378;DHT22;3730;50.856;12.776;2023-07-13T07:47:26;21.60;1.00
7378;DHT22;3730;50.856;12.776;2023-07-13T07:49:52;21.60;1.00
7378;DHT22;3730;50.856;12.776;2023-07-13T07:54:44;21.60;1.00
7378;DHT22;3730;50.856;12.776;2023-07-13T07:57:10;21.50;1.00
7378;DHT22;3730;50.856;12.776;2023-07-13T07:59:37;21.70;1.00
7378;DHT22;3730;50.856;12.776;2023-07-13T08:02:03;21.50;1.00
7378;DHT22;3730;50.856;12.776;2023-07-13T08:09:22;21.20;1.00
7378;DHT22;3730;50.856;12.776;2023-07-13T08:11:47;21.30;1.00
7378;DHT22;3730;50.856;12.776;2023-07-13T08:14:13;21.40;1.00
7378;DHT22;3730;50.856;12.776;2023-07-13T08:19:05;21.40;1.00
7378;DHT22;3730;50.856;12.776;2023-07-13T08:21:31;21.60;1.00
7378;DHT22;3730;50.856;12.776;2023-07-13T08:23:57;21.60;1.00
7378;DHT22;3730;50.856;12.776;2023-07-13T08:26:23;21.60;1.00
7378;DHT22;3730;50.856;12.776;2023-07-13T08:36:06;21.90;1.00
7378;DHT22;3730;50.856;12.776;2023-07-13T08:43:35;22.40;1.00
7378;DHT22;3730;50.856;12.776;2023-07-13T08:46:25;22.30;1.00
7378;DHT22;3730;50.856;12.776;2023-07-13T08:54:04;22.50;1.00
7378;DHT22;3730;50.856;12.776;2023-07-13T08:59:10;22.60;1.00
7378;DHT22;3730;50.856;12.776;2023-07-13T09:04:41;22.80;1.00
7378;DHT22;3730;50.856;12.776;2023-07-13T09:07:29;22.60;1.00
7378;DHT22;3730;50.856;12.776;2023-07-13T09:10:15;22.70;1.00
7378;DHT22;3730;50.856;12.776;2023-07-13T09:15:34;22.60;1.00
7378;DHT22;3730;50.856;12.776;2023-07-13T09:21:05;22.90;1.00
7378;DHT22;3730;50.856;12.776;2023-07-13T09:23:35;22.70;1.00
7378;DHT22;3730;50.856;12.776;2023-07-13T09:26:13;22.40;1.00
7378;DHT22;3730;50.856;12.776;2023-07-13T09:28:42;22.30;1.00
7378;DHT22;3730;50.856;12.776;2023-07-13T09:31:23;22.30;1.00
7378;DHT22;3730;50.856;12.776;2023-07-13T09:33:49;22.30;1.00
7378;DHT22;3730;50.856;12.776;2023-07-13T09:36:20;22.40;1.00
7378;DHT22;3730;50.856;12.776;2023-07-13T09:38:48;22.30;1.00
7378;DHT22;3730;50.856;12.776;2023-07-13T09:44:38;22.50;1.00
7378;DHT22;3730;50.856;12.776;2023-07-13T09:57:56;22.60;1.00
7378;DHT22;3730;50.856;12.776;2023-07-13T10:00:29;22.70;1.00
7378;DHT22;3730;50.856;12.776;2023-07-13T10:03:16;22.70;1.00
7378;DHT22;3730;50.856;12.776;2023-07-13T10:05:45;22.70;1.00
7378;DHT22;3730;50.856;12.776;2023-07-13T10:08:29;22.80;1.00
7378;DHT22;3730;50.856;12.776;2023-07-13T10:10:59;22.80;1.00
7378;DHT22;3730;50.856;12.776;2023-07-13T10:13:29;23.00;1.00
7378;DHT22;3730;50.856;12.776;2023-07-13T10:15:55;22.90;1.00
7378;DHT22;3730;50.856;12.776;2023-07-13T10:18:23;23.00;1.00
7378;DHT22;3730;50.856;12.776;2023-07-13T10:20:54;23.10;1.00
7378;DHT22;3730;50.856;12.776;2023-07-13T10:23:27;23.10;1.00
7378;DHT22;3730;50.856;12.776;2023-07-13T10:28:31;23.50;1.00
7378;DHT22;3730;50.856;12.776;2023-07-13T10:31:00;23.40;1.00
7378;DHT22;3730;50.856;12.776;2023-07-13T10:33:27;23.60;1.00
7378;DHT22;3730;50.856;12.776;2023-07-13T10:36:08;23.70;1.00
7378;DHT22;3730;50.856;12.776;2023-07-13T10:38:38;23.70;1.00
7378;DHT22;3730;50.856;12.776;2023-07-13T10:41:07;23.90;1.00
7378;DHT22;3730;50.856;12.776;2023-07-13T11:36:50;24.40;1.00
7378;DHT22;3730;50.856;12.776;2023-07-13T13:10:13;25.40;1.00
7378;DHT22;3730;50.856;12.776;2023-07-13T13:12:39;26.80;1.00
7378;DHT22;3730;50.856;12.776;2023-07-13T13:15:08;26.60;1.00
7378;DHT22;3730;50.856;12.776;2023-07-13T13:17:34;26.60;1.00
7378;DHT22;3730;50.856;12.776;2023-07-13T13:20:00;26.50;1.00
7378;DHT22;3730;50.856;12.776;2023-07-13T13:22:25;26.30;1.00
7378;DHT22;3730;50.856;12.776;2023-07-13T13:24:51;26.10;1.00
7378;DHT22;3730;50.856;12.776;2023-07-13T13:27:18;25.90;1.00
7378;DHT22;3730;50.856;12.776;2023-07-13T13:29:45;26.00;1.00
7378;DHT22;3730;50.856;12.776;2023-07-13T13:32:14;26.20;1.00
7378;DHT22;3730;50.856;12.776;2023-07-13T13:34:41;26.60;1.00
7378;DHT22;3730;50.856;12.776;2023-07-13T13:37:19;26.90;1.00
7378;DHT22;3730;50.856;12.776;2023-07-13T13:39:45;26.80;1.00
7378;DHT22;3730;50.856;12.776;2023-07-13T13:42:12;26.70;1.00
7378;DHT22;3730;50.856;12.776;2023-07-13T13:44:38;26.80;1.00
7378;DHT22;3730;50.856;12.776;2023-07-13T13:47:04;26.60;1.00
7378;DHT22;3730;50.856;12.776;2023-07-13T13:49:30;26.60;1.00
7378;DHT22;3730;50.856;12.776;2023-07-13T13:51:56;26.50;1.00
7378;DHT22;3730;50.856;12.776;2023-07-13T13:54:23;26.20;1.00
7378;DHT22;3730;50.856;12.776;2023-07-13T13:56:52;26.50;1.00
7378;DHT22;3730;50.856;12.776;2023-07-13T13:59:18;26.50;1.00
7378;DHT22;3730;50.856;12.776;2023-07-13T14:01:46;26.30;1.00
7378;DHT22;3730;50.856;12.776;2023-07-13T14:04:16;26.40;1.00
7378;DHT22;3730;50.856;12.776;2023-07-13T14:06:43;26.40;1.00
7378;DHT22;3730;50.856;12.776;2023-07-13T14:09:11;26.30;1.00
7378;DHT22;3730;50.856;12.776;2023-07-13T14:11:39;26.10;1.00
7378;DHT22;3730;50.856;12.776;2023-07-13T14:14:14;26.10;1.00
7378;DHT22;3730;50.856;12.776;2023-07-13T14:16:41;26.50;1.00
7378;DHT22;3730;50.856;12.776;2023-07-13T14:19:11;26.70;1.00
7378;DHT22;3730;50.856;12.776;2023-07-13T14:26:32;26.90;1.00
7378;DHT22;3730;50.856;12.776;2023-07-13T14:28:59;27.70;1.00
7378;DHT22;3730;50.856;12.776;2023-07-13T14:31:27;27.20;1.00
7378;DHT22;3730;50.856;12.776;2023-07-13T14:33:54;27.40;1.00
7378;DHT22;3730;50.856;12.776;2023-07-13T14:38:56;27.10;1.00
7378;DHT22;3730;50.856;12.776;2023-07-13T14:41:22;27.00;1.00
7378;DHT22;3730;50.856;12.776;2023-07-13T14:43:48;27.00;1.00
7378;DHT22;3730;50.856;12.776;2023-07-13T14:48:46;26.70;1.00
7378;DHT22;3730;50.856;12.776;2023-07-13T14:51:11;26.80;1.00
7378;DHT22;3730;50.856;12.776;2023-07-13T14:53:37;27.00;1.00
7378;DHT22;3730;50.856;12.776;2023-07-13T14:56:10;27.10;1.00
7378;DHT22;3730;50.856;12.776;2023-07-13T14:58:36;27.10;1.00
7378;DHT22;3730;50.856;12.776;2023-07-13T15:01:01;27.20;1.00
7378;DHT22;3730;50.856;12.776;2023-07-13T15:03:27;27.20;1.00
7378;DHT22;3730;50.856;12.776;2023-07-13T15:05:52;27.30;1.00
7378;DHT22;3730;50.856;12.776;2023-07-13T15:08:18;27.30;1.00
7378;DHT22;3730;50.856;12.776;2023-07-13T15:10:44;27.60;1.00
7378;DHT22;3730;50.856;12.776;2023-07-13T15:13:16;27.80;1.00
7378;DHT22;3730;50.856;12.776;2023-07-13T15:15:44;27.90;1.00
7378;DHT22;3730;50.856;12.776;2023-07-13T15:18:12;28.20;1.00
7378;DHT22;3730;50.856;12.776;2023-07-13T15:20:38;28.20;1.00
7378;DHT22;3730;50.856;12.776;2023-07-13T15:23:04;28.40;1.00
7378;DHT22;3730;50.856;12.776;2023-07-13T15:25:32;28.40;1.00
7378;DHT22;3730;50.856;12.776;2023-07-13T15:28:01;28.20;1.00
7378;DHT22;3730;50.856;12.776;2023-07-13T15:50:24;26.10;1.00
7378;DHT22;3730;50.856;12.776;2023-07-13T15:52:53;27.50;1.00
7378;DHT22;3730;50.856;12.776;2023-07-13T15:57:48;27.40;1.00
7378;DHT22;3730;50.856;12.776;2023-07-13T16:02:46;27.40;1.00
7378;DHT22;3730;50.856;12.776;2023-07-13T16:05:12;27.40;1.00
7378;DHT22;3730;50.856;12.776;2023-07-13T16:07:38;26.90;1.00
7378;DHT22;3730;50.856;12.776;2023-07-13T16:52:04;26.70;1.00
7378;DHT22;3730;50.856;12.776;2023-07-13T16:54:39;25.90;1.00
7378;DHT22;3730;50.856;12.776;2023-07-13T16:57:14;25.90;1.00
7378;DHT22;3730;50.856;12.776;2023-07-13T17:37:00;25.00;1.00
7378;DHT22;3730;50.856;12.776;2023-07-13T17:39:25;25.00;1.00
7378;DHT22;3730;50.856;12.776;2023-07-13T18:04:14;24.70;1.00
7378;DHT22;3730;50.856;12.776;2023-07-13T18:06:45;24.50;1.00
7378;DHT22;3730;50.856;12.776;2023-07-13T18:09:22;24.50;1.00
7378;DHT22;3730;50.856;12.776;2023-07-13T18:11:49;24.40;1.00
7378;DHT22;3730;50.856;12.776;2023-07-13T18:14:15;24.30;1.00
7378;DHT22;3730;50.856;12.776;2023-07-13T18:16:44;24.30;1.00
7378;DHT22;3730;50.856;12.776;2023-07-13T18:19:33;24.20;1.00
7378;DHT22;3730;50.856;12.776;2023-07-13T18:22:03;24.20;1.00
7378;DHT22;3730;50.856;12.776;2023-07-13T18:24:35;23.90;1.00
7378;DHT22;3730;50.856;12.776;2023-07-13T18:27:01;24.00;1.00
7378;DHT22;3730;50.856;12.776;2023-07-13T18:29:26;24.00;1.00
7378;DHT22;3730;50.856;12.776;2023-07-13T18:31:52;24.00;1.00
7378;DHT22;3730;50.856;12.776;2023-07-13T18:34:18;24.10;1.00
7378;DHT22;3730;50.856;12.776;2023-07-13T18:36:44;24.00;1.00
7378;DHT22;3730;50.856;12.776;2023-07-13T18:39:13;23.90;1.00
7378;DHT22;3730;50.856;12.776;2023-07-13T18:41:39;23.80;1.00
7378;DHT22;3730;50.856;12.776;2023-07-13T18:44:05;23.90;1.00
7378;DHT22;3730;50.856;12.776;2023-07-13T18:46:32;23.80;1.00
7378;DHT22;3730;50.856;12.776;2023-07-13T18:48:59;23.80;1.00
7378;DHT22;3730;50.856;12.776;2023-07-13T18:51:25;23.80;1.00
7378;DHT22;3730;50.856;12.776;2023-07-13T18:53:52;23.90;1.00
7378;DHT22;3730;50.856;12.776;2023-07-13T18:56:18;23.90;1.00
7378;DHT22;3730;50.856;12.776;2023-07-13T18:58:44;23.80;1.00
7378;DHT22;3730;50.856;12.776;2023-07-13T19:01:26;23.80;1.00
7378;DHT22;3730;50.856;12.776;2023-07-13T19:21:02;23.50;1.00
7378;DHT22;3730;50.856;12.776;2023-07-13T20:15:20;22.70;1.00
7378;DHT22;3730;50.856;12.776;2023-07-13T20:17:50;22.70;1.00
7378;DHT22;3730;50.856;12.776;2023-07-13T20:20:24;22.50;1.00
7378;DHT22;3730;50.856;12.776;2023-07-13T20:22:51;22.60;1.00
7378;DHT22;3730;50.856;12.776;2023-07-13T20:25:23;22.60;1.00
7378;DHT22;3730;50.856;12.776;2023-07-13T20:27:50;22.50;1.00
7378;DHT22;3730;50.856;12.776;2023-07-13T20:30:16;22.40;1.00
7378;DHT22;3730;50.856;12.776;2023-07-13T20:32:43;22.50;1.00
7378;DHT22;3730;50.856;12.776;2023-07-13T20:35:31;22.50;1.00
7378;DHT22;3730;50.856;12.776;2023-07-13T20:37:58;22.50;1.00
7378;DHT22;3730;50.856;12.776;2023-07-13T20:40:27;22.50;1.00
7378;DHT22;3730;50.856;12.776;2023-07-13T20:42:54;22.50;1.00
7378;DHT22;3730;50.856;12.776;2023-07-13T20:45:20;22.40;1.00
7378;DHT22;3730;50.856;12.776;2023-07-13T20:47:48;22.40;1.00
7378;DHT22;3730;50.856;12.776;2023-07-13T20:52:40;22.20;1.00
7378;DHT22;3730;50.856;12.776;2023-07-13T20:55:17;22.20;1.00
7378;DHT22;3730;50.856;12.776;2023-07-13T20:57:45;22.30;1.00
7378;DHT22;3730;50.856;12.776;2023-07-13T21:00:24;22.20;1.00
7378;DHT22;3730;50.856;12.776;2023-07-13T21:03:15;22.20;1.00
7378;DHT22;3730;50.856;12.776;2023-07-13T21:05:41;22.20;1.00
7378;DHT22;3730;50.856;12.776;2023-07-13T21:08:11;22.20;1.00
7378;DHT22;3730;50.856;12.776;2023-07-13T21:10:37;22.30;1.00
7378;DHT22;3730;50.856;12.776;2023-07-13T21:13:04;22.30;1.00
7378;DHT22;3730;50.856;12.776;2023-07-13T21:15:31;22.30;1.00
7378;DHT22;3730;50.856;12.776;2023-07-13T21:17:59;22.00;1.00
7378;DHT22;3730;50.856;12.776;2023-07-13T21:20:36;22.20;1.00
7378;DHT22;3730;50.856;12.776;2023-07-13T21:23:05;22.10;1.00
7378;DHT22;3730;50.856;12.776;2023-07-13T21:25:37;22.10;1.00
7378;DHT22;3730;50.856;12.776;2023-07-13T21:28:03;22.00;1.00
7378;DHT22;3730;50.856;12.776;2023-07-13T21:30:39;22.00;1.00
7378;DHT22;3730;50.856;12.776;2023-07-13T21:33:07;22.10;1.00
7378;DHT22;3730;50.856;12.776;2023-07-13T21:35:35;21.90;1.00
7378;DHT22;3730;50.856;12.776;2023-07-13T21:40:36;21.70;1.00
7378;DHT22;3730;50.856;12.776;2023-07-13T21:43:10;21.80;1.00
7378;DHT22;3730;50.856;12.776;2023-07-13T22:02:59;21.20;1.00
7378;DHT22;3730;50.856;12.776;2023-07-13T22:10:19;21.10;1.00
7378;DHT22;3730;50.856;12.776;2023-07-13T22:12:46;21.00;1.00
7378;DHT22;3730;50.856;12.776;2023-07-13T22:15:14;21.00;1.00
7378;DHT22;3730;50.856;12.776;2023-07-13T22:17:41;21.10;1.00
7378;DHT22;3730;50.856;12.776;2023-07-13T22:20:20;20.90;1.00
7378;DHT22;3730;50.856;12.776;2023-07-13T22:22:47;20.90;1.00
7378;DHT22;3730;50.856;12.776;2023-07-13T22:25:13;20.80;1.00
7378;DHT22;3730;50.856;12.776;2023-07-13T22:27:40;20.70;1.00
7378;DHT22;3730;50.856;12.776;2023-07-13T22:32:33;20.50;1.00
7378;DHT22;3730;50.856;12.776;2023-07-13T22:34:59;20.70;1.00
7378;DHT22;3730;50.856;12.776;2023-07-13T22:37:25;20.70;1.00
7378;DHT22;3730;50.856;12.776;2023-07-13T22:39:50;20.60;1.00
7378;DHT22;3730;50.856;12.776;2023-07-13T22:44:42;20.40;1.00
7378;DHT22;3730;50.856;12.776;2023-07-13T22:47:14;20.50;1.00
7378;DHT22;3730;50.856;12.776;2023-07-13T22:49:40;20.50;1.00
7378;DHT22;3730;50.856;12.776;2023-07-13T22:52:10;20.50;1.00
7378;DHT22;3730;50.856;12.776;2023-07-13T23:21:28;20.20;1.00
7378;DHT22;3730;50.856;12.776;2023-07-13T23:23:53;20.10;1.00
7378;DHT22;3730;50.856;12.776;2023-07-13T23:26:22;20.10;1.00
7378;DHT22;3730;50.856;12.776;2023-07-13T23:28:49;20.10;1.00
7378;DHT22;3730;50.856;12.776;2023-07-13T23:31:26;20.00;1.00
7378;DHT22;3730;50.856;12.776;2023-07-13T23:33:53;20.00;1.00
7378;DHT22;3730;50.856;12.776;2023-07-13T23:36:21;19.80;1.00
